createdAt,value
2024-02-28T00:02:03.805Z,10.34
2024-02-28T00:04:30.461Z,10.30
2024-02-28T00:06:57.194Z,10.31
2024-02-28T00:09:24.006Z,10.34
2024-02-28T00:11:50.807Z,10.44
2024-02-28T00:14:17.519Z,10.47
2024-02-28T00:16:45.405Z,10.42
2024-02-28T00:19:13.674Z,10.42
2024-02-28T00:21:41.562Z,10.42
2024-02-28T00:24:08.981Z,10.39
2024-02-28T00:26:36.006Z,10.40
2024-02-28T00:29:03.201Z,10.30
2024-02-28T00:31:30.010Z,10.23
2024-02-28T00:33:56.788Z,10.18
2024-02-28T00:36:23.530Z,10.06
2024-02-28T00:38:50.303Z,9.97
2024-02-28T00:41:16.995Z,10.00
2024-02-28T00:43:43.673Z,10.03
2024-02-28T00:46:13.292Z,10.04
2024-02-28T00:48:40.737Z,10.02
2024-02-28T00:51:09.360Z,9.97
2024-02-28T00:53:36.131Z,9.95
2024-02-28T00:56:03.013Z,9.82
2024-02-28T00:58:31.177Z,9.74
2024-02-28T01:00:58.451Z,9.70
2024-02-28T01:03:25.373Z,9.63
2024-02-28T01:05:52.417Z,9.57
2024-02-28T01:08:19.598Z,9.52
2024-02-28T01:10:47.399Z,9.41
2024-02-28T01:13:14.161Z,9.40
2024-02-28T01:15:43.086Z,9.41
2024-02-28T01:18:10.814Z,9.43
2024-02-28T01:20:37.827Z,9.52
2024-02-28T01:23:04.751Z,9.54
2024-02-28T01:25:31.458Z,9.57
2024-02-28T01:28:00.997Z,9.66
2024-02-28T01:30:27.760Z,9.75
2024-02-28T01:32:54.510Z,9.78
2024-02-28T01:35:21.323Z,9.78
2024-02-28T01:37:48.078Z,9.77
2024-02-28T01:40:14.888Z,9.75
2024-02-28T01:42:41.684Z,9.68
2024-02-28T01:45:11.183Z,9.70
2024-02-28T01:47:38.554Z,9.63
2024-02-28T01:50:06.396Z,9.56
2024-02-28T01:52:33.503Z,9.50
2024-02-28T01:55:00.534Z,9.42
2024-02-28T01:57:28.442Z,9.46
2024-02-28T01:59:57.037Z,9.50
2024-02-28T02:02:23.734Z,9.50
2024-02-28T02:04:50.735Z,9.44
2024-02-28T02:07:17.476Z,9.37
2024-02-28T02:09:44.245Z,9.29
2024-02-28T02:12:10.985Z,9.31
2024-02-28T02:14:37.642Z,9.30
2024-02-28T02:17:04.275Z,9.27
2024-02-28T02:19:31.114Z,9.22
2024-02-28T02:22:00.063Z,9.21
2024-02-28T02:24:26.801Z,9.29
2024-02-28T02:26:59.341Z,9.26
2024-02-28T02:29:25.995Z,9.26
2024-02-28T02:31:52.600Z,9.26
2024-02-28T02:34:19.213Z,9.20
2024-02-28T02:36:45.896Z,9.17
2024-02-28T02:39:12.870Z,9.15
2024-02-28T02:41:39.497Z,9.11
2024-02-28T02:44:06.096Z,9.00
2024-02-28T02:46:32.795Z,9.00
2024-02-28T02:48:59.495Z,8.96
2024-02-28T02:51:26.913Z,9.01
2024-02-28T02:53:54.894Z,9.03
2024-02-28T02:56:21.844Z,9.08
2024-02-28T02:58:48.471Z,9.11
2024-02-28T03:01:15.481Z,9.05
2024-02-28T03:03:42.322Z,8.97
2024-02-28T03:06:10.982Z,9.05
2024-02-28T03:08:37.661Z,9.04
2024-02-28T03:11:05.782Z,8.96
2024-02-28T03:13:32.539Z,8.90
2024-02-28T03:15:59.477Z,8.75
2024-02-28T03:18:26.261Z,8.83
2024-02-28T03:20:52.886Z,8.77
2024-02-28T03:23:19.523Z,8.67
2024-02-28T03:25:46.326Z,8.64
2024-02-28T03:28:12.964Z,8.60
2024-02-28T03:30:39.644Z,8.53
2024-02-28T03:33:06.469Z,8.56
2024-02-28T03:35:33.082Z,8.61
2024-02-28T03:37:59.662Z,8.76
2024-02-28T03:40:26.350Z,8.95
2024-02-28T03:42:53.057Z,8.90
2024-02-28T03:45:21.035Z,8.78
2024-02-28T03:47:47.756Z,8.70
2024-02-28T03:50:14.856Z,8.85
2024-02-28T03:52:41.490Z,9.06
2024-02-28T03:55:08.393Z,9.15
2024-02-28T03:57:35.086Z,9.23
2024-02-28T06:23:28.956Z,8.24
2024-02-28T06:25:57.495Z,8.25
2024-02-28T06:28:24.363Z,8.55
2024-02-28T07:40:19.909Z,10.24
2024-02-28T07:42:46.719Z,10.19
2024-02-28T07:45:13.487Z,10.14
2024-02-28T07:47:41.392Z,10.23
2024-02-28T07:50:08.532Z,10.36
2024-02-28T07:52:36.303Z,10.49
2024-02-28T07:55:03.534Z,10.51
2024-02-28T07:57:30.195Z,10.72
2024-02-28T07:59:57.052Z,10.71
2024-02-28T08:02:24.015Z,10.88
2024-02-28T08:04:51.827Z,10.86
2024-02-28T08:07:18.645Z,11.07
2024-02-28T08:09:45.333Z,11.32
2024-02-28T08:12:12.038Z,11.40
2024-02-28T08:14:38.633Z,11.51
2024-02-28T08:17:05.634Z,11.73
2024-02-28T08:19:32.286Z,11.98
2024-02-28T08:21:59.002Z,12.20
2024-02-28T08:24:25.746Z,12.49
2024-02-28T08:26:52.520Z,12.72
2024-02-28T08:29:19.159Z,12.91
2024-02-28T08:31:46.152Z,12.80
2024-02-28T08:34:13.176Z,12.73
2024-02-28T08:36:40.033Z,12.67
2024-02-28T08:39:06.773Z,12.91
2024-02-28T08:41:35.129Z,13.00
2024-02-28T08:44:02.155Z,13.10
2024-02-28T08:46:28.813Z,13.35
2024-02-28T09:58:48.546Z,15.56
2024-02-28T10:01:18.379Z,15.50
2024-02-28T10:03:46.790Z,15.34
2024-02-28T10:06:14.913Z,15.42
2024-02-28T10:08:41.690Z,15.25
2024-02-28T10:11:08.608Z,15.04
2024-02-28T10:13:36.906Z,15.08
2024-02-28T10:16:04.887Z,15.44
2024-02-28T10:18:31.654Z,15.54
2024-02-28T10:20:58.321Z,15.32
2024-02-28T10:23:25.102Z,15.32
2024-02-28T10:25:56.714Z,14.93
2024-02-28T10:28:24.980Z,14.97
2024-02-28T10:30:52.079Z,14.74
2024-02-28T10:33:18.988Z,14.75
2024-02-28T10:35:46.283Z,14.67
2024-02-28T10:38:14.466Z,14.59
2024-02-28T10:40:44.653Z,14.82
2024-02-28T10:43:12.223Z,14.73
2024-02-28T10:45:57.698Z,14.80
2024-02-28T10:48:29.138Z,15.01
2024-02-28T10:50:56.368Z,14.74
2024-02-28T10:53:39.035Z,14.84
2024-02-28T10:56:07.499Z,14.86
2024-02-28T10:58:38.625Z,14.90
2024-02-28T11:01:06.622Z,14.85
2024-02-28T11:03:33.706Z,15.03
2024-02-28T11:06:00.340Z,14.95
2024-02-28T11:08:29.320Z,14.78
2024-02-28T11:11:03.147Z,15.06
2024-02-28T11:13:32.261Z,14.98
2024-02-28T11:16:11.793Z,14.93
2024-02-28T11:18:50.129Z,14.96
2024-02-28T11:21:17.991Z,14.96
2024-02-28T11:23:48.966Z,15.03
2024-02-28T11:26:16.831Z,14.81
2024-02-28T11:28:43.704Z,14.80
2024-02-28T11:31:10.630Z,15.07
2024-02-28T11:33:37.750Z,15.10
2024-02-28T11:36:05.125Z,14.89
2024-02-28T11:38:32.756Z,14.57
2024-02-28T11:40:59.502Z,14.38
2024-02-28T11:43:27.199Z,14.43
2024-02-28T11:45:56.408Z,14.19
2024-02-28T11:48:23.349Z,14.32
2024-02-28T11:50:52.290Z,14.52
2024-02-28T11:53:18.972Z,14.67
2024-02-28T11:55:48.772Z,14.46
2024-02-28T11:58:16.026Z,14.55
2024-02-28T12:00:50.062Z,14.64
2024-02-28T12:03:24.416Z,14.51
2024-02-28T12:05:52.557Z,14.40
2024-02-28T12:08:20.428Z,14.46
2024-02-28T12:10:50.347Z,14.46
2024-02-28T12:13:21.661Z,14.49
2024-02-28T12:15:49.523Z,14.61
2024-02-28T12:18:16.764Z,14.68
2024-02-28T12:20:43.661Z,14.63
2024-02-28T12:23:10.483Z,14.69
2024-02-28T12:25:37.375Z,14.55
2024-02-28T12:28:07.181Z,14.54
2024-02-28T12:30:42.511Z,14.60
2024-02-28T12:33:10.184Z,14.61
2024-02-28T12:35:37.511Z,14.53
2024-02-28T12:38:04.543Z,14.68
2024-02-28T12:40:31.338Z,14.85
2024-02-28T12:42:58.035Z,14.78
2024-02-28T12:45:24.864Z,14.82
2024-02-28T12:47:51.570Z,14.89
2024-02-28T12:50:18.374Z,14.85
2024-02-28T12:52:45.014Z,14.80
2024-02-28T12:55:12.623Z,14.83
2024-02-28T12:57:39.288Z,14.72
2024-02-28T13:00:07.637Z,14.70
2024-02-28T13:02:34.451Z,14.81
2024-02-28T13:05:01.085Z,14.97
2024-02-28T13:07:27.771Z,15.08
2024-02-28T13:09:54.440Z,14.85
2024-02-28T13:12:21.335Z,14.85
2024-02-28T13:14:48.097Z,14.78
2024-02-28T13:17:16.179Z,14.67
2024-02-28T13:19:42.848Z,14.52
2024-02-28T13:22:09.531Z,14.51
2024-02-28T13:24:37.109Z,14.43
2024-02-28T13:27:04.141Z,14.21
2024-02-28T13:29:32.809Z,14.20
2024-02-28T13:32:00.108Z,14.12
2024-02-28T13:34:26.814Z,14.04
2024-02-28T13:36:53.586Z,13.87
2024-02-28T13:39:20.345Z,13.94
2024-02-28T13:41:51.572Z,13.93
2024-02-28T13:44:20.070Z,13.91
2024-02-28T13:46:47.194Z,13.85
2024-02-28T13:49:18.028Z,13.68
2024-02-28T13:51:46.155Z,13.65
2024-02-28T13:54:12.908Z,13.63
2024-02-28T13:56:39.529Z,13.51
2024-02-28T13:59:07.513Z,13.50
2024-02-28T14:01:34.394Z,13.46
2024-02-28T14:04:01.069Z,13.39
2024-02-28T14:06:27.968Z,13.27
2024-02-28T14:08:54.782Z,13.10
2024-02-28T14:11:21.953Z,13.08
2024-02-28T14:13:48.652Z,13.01
2024-02-28T14:16:15.751Z,12.92
2024-02-28T14:18:42.694Z,12.89
2024-02-28T14:21:09.493Z,12.88
2024-02-28T14:23:36.211Z,12.95
2024-02-28T14:26:03.456Z,12.99
2024-02-28T14:28:30.092Z,12.93
2024-02-28T14:30:56.924Z,12.81
2024-02-28T14:33:23.875Z,12.70
2024-02-28T14:35:50.679Z,12.65
2024-02-28T14:38:17.353Z,12.59
2024-02-28T14:40:44.149Z,12.54
2024-02-28T14:43:11.144Z,12.53
2024-02-28T14:45:40.665Z,12.49
2024-02-28T14:48:08.490Z,12.38
2024-02-28T14:50:35.243Z,12.31
2024-02-28T14:53:01.987Z,12.21
2024-02-28T14:55:28.717Z,12.07
2024-02-28T14:57:55.431Z,12.10
2024-02-28T15:00:22.343Z,11.97
2024-02-28T15:02:49.106Z,11.88
2024-02-28T15:05:15.919Z,11.76
2024-02-28T15:07:42.711Z,11.66
2024-02-28T15:10:09.752Z,11.60
2024-02-28T15:12:36.888Z,11.56
2024-02-28T15:15:05.720Z,11.46
2024-02-28T15:17:33.681Z,11.37
2024-02-28T15:20:03.431Z,11.36
2024-02-28T15:22:30.715Z,11.31
2024-02-28T15:24:57.965Z,11.23
2024-02-28T15:27:24.690Z,11.19
2024-02-28T15:29:51.410Z,11.16
2024-02-28T15:32:18.057Z,11.13
2024-02-28T15:34:44.670Z,11.08
2024-02-28T15:37:11.673Z,11.07
2024-02-28T15:39:38.369Z,11.04
2024-02-28T15:42:05.333Z,11.03
2024-02-28T15:44:31.991Z,11.02
2024-02-28T15:46:58.604Z,10.99
2024-02-28T15:49:33.226Z,10.93
2024-02-28T15:52:07.049Z,10.86
2024-02-28T15:54:33.702Z,10.81
2024-02-28T15:57:01.655Z,10.76
2024-02-28T15:59:28.420Z,10.73
2024-02-28T16:01:55.418Z,10.70
2024-02-28T16:04:22.154Z,10.67
2024-02-28T16:09:30.797Z,10.56
2024-02-28T16:17:18.338Z,10.40
2024-02-28T16:19:45.706Z,10.35
2024-02-28T16:22:12.522Z,10.29
2024-02-28T16:24:39.698Z,10.23
2024-02-28T16:27:06.828Z,10.17
2024-02-28T16:29:33.457Z,10.13
2024-02-28T16:32:00.113Z,10.10
2024-02-28T16:34:28.118Z,10.08
2024-02-28T16:36:54.799Z,10.04
2024-02-28T16:39:22.337Z,10.00
2024-02-28T16:41:49.135Z,9.98
2024-02-28T16:44:15.915Z,9.97
2024-02-28T16:46:42.886Z,9.95
2024-02-28T16:49:09.749Z,9.94
2024-02-28T16:51:39.005Z,9.92
2024-02-28T16:54:07.374Z,9.88
2024-02-28T16:56:34.077Z,9.80
2024-02-28T16:59:00.946Z,9.75
2024-02-28T17:01:28.020Z,9.64
2024-02-28T17:03:55.058Z,9.65
2024-02-28T17:06:21.995Z,9.45
2024-02-28T17:08:49.030Z,9.42
2024-02-28T17:11:15.985Z,9.35
2024-02-28T17:13:43.020Z,9.33
2024-02-28T17:16:09.986Z,9.25
2024-02-28T17:51:55.588Z,8.78
2024-02-28T18:08:54.970Z,8.68
2024-02-28T18:31:11.941Z,8.44
2024-02-28T18:42:07.545Z,8.36
2024-02-28T18:44:37.697Z,8.32
2024-02-28T18:47:05.943Z,8.31
2024-02-28T19:16:27.692Z,8.01
2024-02-28T19:18:54.725Z,8.13
2024-02-28T19:21:21.500Z,8.20
2024-02-28T19:23:48.715Z,8.23
2024-02-28T19:26:17.754Z,8.15
2024-02-28T19:28:45.390Z,8.16
2024-02-28T19:31:12.182Z,8.12
2024-02-28T19:33:40.630Z,8.05
2024-02-28T19:36:08.338Z,8.04
2024-02-28T19:38:35.092Z,8.07
2024-02-28T19:41:01.731Z,8.06
2024-02-28T19:43:28.383Z,8.04
2024-02-28T19:45:55.139Z,8.00
2024-02-28T19:48:22.043Z,7.96
2024-02-28T19:50:48.639Z,7.95
2024-02-28T19:53:15.308Z,7.99
2024-02-28T19:55:42.056Z,7.96
2024-02-28T19:58:08.780Z,7.99
2024-02-28T20:00:35.724Z,7.98
2024-02-28T20:03:04.486Z,7.91
2024-02-28T20:05:31.206Z,7.88
2024-02-28T20:07:57.845Z,7.89
2024-02-28T20:10:24.480Z,7.87
2024-02-28T20:12:51.192Z,7.86
2024-02-28T20:15:18.424Z,7.78
2024-02-28T20:17:45.491Z,7.74
2024-02-28T20:20:12.268Z,7.71
2024-02-28T20:22:39.012Z,7.70
2024-02-28T20:25:06.171Z,7.71
2024-02-28T20:27:32.904Z,7.70
2024-02-28T20:29:59.580Z,7.67
2024-02-28T20:32:26.321Z,7.67
2024-02-28T20:34:53.020Z,7.59
2024-02-28T20:37:22.574Z,7.55
2024-02-28T20:39:50.008Z,7.58
2024-02-28T20:42:16.811Z,7.65
2024-02-28T20:44:43.512Z,7.68
2024-02-28T20:47:10.377Z,7.69
2024-02-28T20:49:37.709Z,7.67
2024-02-28T20:52:04.857Z,7.65
2024-02-28T20:54:31.573Z,7.69
2024-02-28T20:57:05.820Z,7.67
2024-02-28T20:59:39.145Z,7.73
2024-02-28T21:02:06.284Z,7.73
2024-02-28T21:04:34.702Z,7.76
2024-02-28T21:07:01.375Z,7.77
2024-02-28T21:09:28.217Z,7.78
2024-02-28T21:12:04.936Z,7.77
2024-02-28T21:14:31.998Z,7.79
2024-02-28T21:16:58.900Z,7.79
2024-02-28T21:19:26.737Z,7.78
2024-02-28T21:21:53.645Z,7.79
2024-02-28T21:24:20.573Z,7.79
2024-02-28T21:26:47.389Z,7.84
2024-02-28T21:29:14.204Z,7.87
2024-02-28T21:31:40.933Z,7.96
2024-02-28T21:34:08.655Z,8.01
2024-02-28T21:36:35.571Z,8.07
2024-02-28T21:39:03.793Z,8.13
2024-02-28T21:41:30.440Z,8.18
2024-02-28T21:44:00.042Z,8.21
2024-02-28T21:46:26.823Z,8.20
2024-02-28T21:49:02.353Z,8.14
2024-02-28T21:51:33.132Z,8.07
2024-02-28T21:54:00.208Z,8.00
2024-02-28T21:56:26.873Z,7.97
2024-02-28T21:58:53.596Z,7.92
2024-02-28T22:01:20.498Z,7.90
2024-02-28T22:03:47.240Z,7.86
2024-02-28T22:06:13.883Z,7.87
2024-02-28T22:08:40.625Z,7.85
2024-02-28T22:11:10.543Z,7.82
2024-02-28T22:13:37.221Z,7.79
2024-02-28T22:16:04.336Z,7.87
2024-02-28T22:18:31.247Z,7.82
2024-02-28T22:20:58.192Z,7.74
2024-02-28T22:23:25.046Z,7.66
2024-02-28T22:25:51.718Z,7.67
2024-02-28T22:28:18.348Z,7.63
2024-02-28T22:30:45.084Z,7.66
2024-02-28T22:33:11.839Z,7.64
2024-02-28T22:35:39.769Z,7.71
2024-02-28T22:38:06.455Z,7.75
2024-02-28T22:40:33.089Z,7.77
2024-02-28T22:42:59.943Z,7.91
2024-02-28T22:45:26.913Z,7.87
2024-02-28T22:47:53.686Z,7.83
2024-02-28T22:50:20.410Z,7.77
2024-02-28T22:52:47.880Z,7.70
2024-02-28T22:55:17.688Z,7.81
2024-02-28T22:57:46.447Z,7.86
2024-02-28T23:00:33.757Z,7.89
2024-02-28T23:03:05.380Z,7.92
2024-02-28T23:05:33.262Z,8.03
2024-02-28T23:08:00.767Z,8.06
2024-02-28T23:10:27.769Z,8.09
2024-02-28T23:12:56.307Z,8.16
2024-02-28T23:15:23.761Z,8.14
2024-02-28T23:17:54.271Z,8.15
2024-02-28T23:20:35.264Z,8.25
2024-02-28T23:23:03.895Z,8.35
2024-02-28T23:25:30.590Z,8.33
2024-02-28T23:27:57.494Z,8.33
2024-02-28T23:30:24.177Z,8.36
2024-02-28T23:32:50.994Z,8.33
2024-02-28T23:35:17.936Z,8.32
2024-02-28T23:37:44.659Z,8.35
2024-02-28T23:40:12.889Z,8.33
2024-02-28T23:42:40.656Z,8.33
2024-02-28T23:45:08.298Z,8.31
2024-02-28T23:47:35.171Z,8.29
2024-02-28T23:50:01.877Z,8.27
2024-02-28T23:52:28.878Z,8.38
2024-02-28T23:54:55.553Z,8.36
2024-02-28T23:57:22.229Z,8.42
2024-02-28T23:59:49.228Z,8.43
